Grace — PBCR — position and weather

sailwx.info

Track history (hours):
 
Tides and Currents Weather Stations Pressure Air Temp Water Temp Dewpoint Dewpoint Depression Visibility Wind Speed Wind Dir Waves Ship Positions

Grace

Last reported at 2015-Jul-05 22:32 UTC. Time now 2015-Jul-05 23:18 UTC.
Position N 67°17' E 014°23'.

Length 48 m; draft 2.8 m.

Type: Ship. MMSI: 244657000.

Date/timePositionNaut miles runAvg speedWind from/ knotsBaromVisibWave heightAir tempDewpointWater temp
2015-Jul-05 22:32N 67°17' E 014°23'0 0.0
2015-Jul-05 21:32N 67°17' E 014°23'0 0.0
2015-Jul-05 20:32N 67°17' E 014°23'0 0.0
2015-Jul-05 19:32N 67°17' E 014°23'0 0.0
2015-Jul-05 18:32N 67°17' E 014°23'0 0.0
2015-Jul-05 17:32N 67°17' E 014°23'0 0.0
2015-Jul-05 16:32N 67°17' E 014°23'0 0.0
2015-Jul-05 15:33N 67°17' E 014°23'1010.0
2015-Jul-05 14:33N 67°26' E 014°33'13 9.9
2015-Jul-05 13:15N 67°39' E 014°43'810.7
2015-Jul-05 12:32N 67°46' E 014°43'  
2015-Jul-01 14:08N 67°29' E 014°22'610.2
2015-Jul-01 13:33N 67°23' E 014°26'6 6.1
2015-Jul-01 12:32N 67°17' E 014°23'0 0.0
2015-Jul-01 11:32N 67°17' E 014°23'0 0.0
2015-Jul-01 10:32N 67°17' E 014°23'0 0.0
2015-Jul-01 09:32N 67°17' E 014°23'0 0.0
2015-Jul-01 08:32N 67°17' E 014°23'0 0.0
2015-Jul-01 07:32N 67°17' E 014°23'0 0.0
2015-Jul-01 06:32N 67°17' E 014°23'3 3.0
2015-Jul-01 05:33N 67°20' E 014°24'  
2015-Jun-27 11:31N 67°31' E 014°41'1010.5
2015-Jun-27 10:33N 67°22' E 014°27'5 5.0
2015-Jun-27 09:31N 67°17' E 014°23'0 0.0
2015-Jun-27 08:31N 67°17' E 014°23'0 0.0
2015-Jun-27 07:31N 67°17' E 014°23'0 0.0
2015-Jun-27 06:31N 67°17' E 014°23'0 0.0
2015-Jun-27 05:31N 67°17' E 014°23'0 0.0
2015-Jun-27 04:31N 67°17' E 014°23'0 0.0
2015-Jun-27 03:31N 67°17' E 014°23'0 0.0
2015-Jun-27 02:31N 67°17' E 014°23'0 0.0
2015-Jun-27 01:31N 67°17' E 014°23'0 0.0
2015-Jun-27 00:28N 67°17' E 014°23'0 0.0
2015-Jun-26 23:31N 67°17' E 014°23'0 0.0
2015-Jun-26 22:31N 67°17' E 014°23'0 0.0
2015-Jun-26 21:28N 67°17' E 014°23'0 0.0
2015-Jun-26 20:31N 67°17' E 014°23'0 0.0
2015-Jun-26 19:31N 67°17' E 014°23'0 0.0
2015-Jun-26 18:31N 67°17' E 014°23'0 0.0
2015-Jun-26 17:28N 67°17' E 014°23'0 0.0
2015-Jun-26 16:31N 67°17' E 014°23'0 0.0
2015-Jun-26 15:31N 67°17' E 014°23'0 0.0
2015-Jun-26 14:31N 67°17' E 014°23'0 0.0
2015-Jun-26 13:31N 67°17' E 014°23'0 0.0
2015-Jun-26 12:31N 67°17' E 014°23'0 0.0
2015-Jun-26 11:31N 67°17' E 014°23'0 0.0
2015-Jun-26 10:31N 67°17' E 014°23'0 0.0
2015-Jun-26 09:31N 67°17' E 014°23'0 0.0
2015-Jun-26 08:31N 67°17' E 014°23'0 0.0
2015-Jun-26 07:31N 67°17' E 014°23'0 0.0
2015-Jun-26 06:31N 67°17' E 014°23'0 0.0
2015-Jun-26 05:28N 67°17' E 014°23'0 0.0
2015-Jun-26 04:31N 67°17' E 014°23'0 0.0
2015-Jun-26 03:31N 67°17' E 014°23'0 0.0
2015-Jun-26 02:31N 67°17' E 014°23'0 0.0
2015-Jun-26 01:31N 67°17' E 014°23'0 0.0
2015-Jun-26 00:31N 67°17' E 014°23'0 0.0
2015-Jun-25 23:31N 67°17' E 014°23'  
Track history (hours):
 
Tides and Currents Weather Stations Pressure Air Temp Water Temp Dewpoint Dewpoint Depression Visibility Wind Speed Wind Dir Waves Ship Positions

Grace

Last reported at 2015-Jul-05 22:32 UTC. Time now 2015-Jul-05 23:18 UTC.
Position N 67°17' E 014°23'.

Length 48 m; draft 2.8 m.

Type: Ship. MMSI: 244657000.

Date/timePositionNaut miles runAvg speedWind from/ knotsBaromVisibWave heightAir tempDewpointWater temp
2015-Jul-05 22:32N 67°17' E 014°23'0 0.0
2015-Jul-05 21:32N 67°17' E 014°23'0 0.0
2015-Jul-05 20:32N 67°17' E 014°23'0 0.0
2015-Jul-05 19:32N 67°17' E 014°23'0 0.0
2015-Jul-05 18:32N 67°17' E 014°23'0 0.0
2015-Jul-05 17:32N 67°17' E 014°23'0 0.0
2015-Jul-05 16:32N 67°17' E 014°23'0 0.0
2015-Jul-05 15:33N 67°17' E 014°23'1010.0
2015-Jul-05 14:33N 67°26' E 014°33'13 9.9
2015-Jul-05 13:15N 67°39' E 014°43'810.7
2015-Jul-05 12:32N 67°46' E 014°43'  
2015-Jul-01 14:08N 67°29' E 014°22'610.2
2015-Jul-01 13:33N 67°23' E 014°26'6 6.1
2015-Jul-01 12:32N 67°17' E 014°23'0 0.0
2015-Jul-01 11:32N 67°17' E 014°23'0 0.0
2015-Jul-01 10:32N 67°17' E 014°23'0 0.0
2015-Jul-01 09:32N 67°17' E 014°23'0 0.0
2015-Jul-01 08:32N 67°17' E 014°23'0 0.0
2015-Jul-01 07:32N 67°17' E 014°23'0 0.0
2015-Jul-01 06:32N 67°17' E 014°23'3 3.0
2015-Jul-01 05:33N 67°20' E 014°24'  
2015-Jun-27 11:31N 67°31' E 014°41'1010.5
2015-Jun-27 10:33N 67°22' E 014°27'5 5.0
2015-Jun-27 09:31N 67°17' E 014°23'0 0.0
2015-Jun-27 08:31N 67°17' E 014°23'0 0.0
2015-Jun-27 07:31N 67°17' E 014°23'0 0.0
2015-Jun-27 06:31N 67°17' E 014°23'0 0.0
2015-Jun-27 05:31N 67°17' E 014°23'0 0.0
2015-Jun-27 04:31N 67°17' E 014°23'0 0.0
2015-Jun-27 03:31N 67°17' E 014°23'0 0.0
2015-Jun-27 02:31N 67°17' E 014°23'0 0.0
2015-Jun-27 01:31N 67°17' E 014°23'0 0.0
2015-Jun-27 00:28N 67°17' E 014°23'0 0.0
2015-Jun-26 23:31N 67°17' E 014°23'0 0.0
2015-Jun-26 22:31N 67°17' E 014°23'0 0.0
2015-Jun-26 21:28N 67°17' E 014°23'0 0.0
2015-Jun-26 20:31N 67°17' E 014°23'0 0.0
2015-Jun-26 19:31N 67°17' E 014°23'0 0.0
2015-Jun-26 18:31N 67°17' E 014°23'0 0.0
2015-Jun-26 17:28N 67°17' E 014°23'0 0.0
2015-Jun-26 16:31N 67°17' E 014°23'0 0.0
2015-Jun-26 15:31N 67°17' E 014°23'0 0.0
2015-Jun-26 14:31N 67°17' E 014°23'0 0.0
2015-Jun-26 13:31N 67°17' E 014°23'0 0.0
2015-Jun-26 12:31N 67°17' E 014°23'0 0.0
2015-Jun-26 11:31N 67°17' E 014°23'0 0.0
2015-Jun-26 10:31N 67°17' E 014°23'0 0.0
2015-Jun-26 09:31N 67°17' E 014°23'0 0.0
2015-Jun-26 08:31N 67°17' E 014°23'0 0.0
2015-Jun-26 07:31N 67°17' E 014°23'0 0.0
2015-Jun-26 06:31N 67°17' E 014°23'0 0.0
2015-Jun-26 05:28N 67°17' E 014°23'0 0.0
2015-Jun-26 04:31N 67°17' E 014°23'0 0.0
2015-Jun-26 03:31N 67°17' E 014°23'0 0.0
2015-Jun-26 02:31N 67°17' E 014°23'0 0.0
2015-Jun-26 01:31N 67°17' E 014°23'0 0.0
2015-Jun-26 00:31N 67°17' E 014°23'0 0.0
2015-Jun-25 23:31N 67°17' E 014°23'  

Dump ship's entire track history